8A3

Livingston Municipal Airport

Livingston, Tennessee, USA
METAR K8A3 210955Z AUTO 22010G17KT 10SM CLR 18/16 A2985 RMK A01
Observed Flight Rules
Jul-21 @ 09:55 UTC (7 minutes ago) Visual Flight Rules
Wind Visibility Clouds
220° at 10 knots
 Gusting to 17 knots
10 miles
  • Clear skies
Temperatures Readings
Current 18°C / 64°F
Dewpoint 16°C / 61°F
Humidity 88%
Altimeter 29.85" Hg
Pressure 1011 hPa
Elevation 419
METAR K8A3 210955Z AUTO 22010G17KT 10SM CLR 18/16 A2985 RMK A01
Observed Flight Rules
Jul-21 @ 09:55 UTC
(7 minutes ago)
VFR
Wind Visibility
220° at 10 knots
 Gusting to 17 knots
10 miles
Clouds
  • Clear skies
Temperature Dewpoint
18°C / 64°F 16°C / 61°F
Humidity Altimeter Pressure
88% 29.85" Hg 1011 hPa